Time;durP1;ratioP1;P1;durP2;ratioP2;P2;SDS_P1;SDS_P2;PMS_P1;PMS_P2;Temp;Humidity;BMP_temperature;BMP_pressure;BME280_temperature;BME280_humidity;BME280_pressure;Samples;Min_cycle;Max_cycle;Signal;HPM_P1;HPM_P2
2021/05/15 00:00:30;;;;;;;0.00;0.00;;;;;;;;;;4974061;28;20216;-62
2021/05/15 00:02:57;;;;;;;0.00;0.00;;;;;;;;;;4977120;28;20192;-62
2021/05/15 00:05:23;;;;;;;2.77;0.20;;;;;;;;;;4974727;28;20219;-61
2021/05/15 00:07:50;;;;;;;0.50;0.40;;;;;;;;;;4970482;28;20197;-62
2021/05/15 00:10:17;;;;;;;0.00;0.00;;;;;;;;;;4976535;28;20249;-62
2021/05/15 00:12:45;;;;;;;0.00;0.00;;;;;;;;;;4976996;28;20893;-63
2021/05/15 00:15:13;;;;;;;0.00;0.00;;;;;;;;;;4973462;28;20197;-62
2021/05/15 00:17:40;;;;;;;0.00;0.00;;;;;;;;;;4976496;28;20200;-62
2021/05/15 00:20:12;;;;;;;0.00;0.00;;;;;;;;;;4965708;28;20190;-62
2021/05/15 00:22:40;;;;;;;0.00;0.00;;;;;;;;;;4971751;28;20876;-62
2021/05/15 00:25:08;;;;;;;0.00;0.00;;;;;;;;;;4970569;28;20214;-62
2021/05/15 00:27:36;;;;;;;0.20;0.20;;;;;;;;;;4965487;28;20196;-62
2021/05/15 00:30:05;;;;;;;0.00;0.00;;;;;;;;;;4968156;28;20186;-62
2021/05/15 00:32:31;;;;;;;0.57;0.57;;;;;;;;;;4971582;28;20214;-62
2021/05/15 00:34:58;;;;;;;0.00;0.00;;;;;;;;;;4970420;28;20187;-62
2021/05/15 00:37:25;;;;;;;0.00;0.00;;;;;;;;;;4969642;28;20177;-63
2021/05/15 00:39:52;;;;;;;0.50;0.40;;;;;;;;;;4967435;28;20269;-63
2021/05/15 00:42:18;;;;;;;0.00;0.00;;;;;;;;;;4969332;28;20186;-62
2021/05/15 00:44:45;;;;;;;0.00;0.00;;;;;;;;;;4968625;28;20197;-62
2021/05/15 00:47:13;;;;;;;0.63;0.63;;;;;;;;;;4972034;28;20305;-62
2021/05/15 00:49:40;;;;;;;3.00;1.37;;;;;;;;;;4970511;28;20196;-62
2021/05/15 00:52:08;;;;;;;0.27;0.27;;;;;;;;;;4972363;28;20188;-62
2021/05/15 00:54:36;;;;;;;0.10;0.10;;;;;;;;;;4974218;28;20289;-62
2021/05/15 00:57:04;;;;;;;5.17;1.00;;;;;;;;;;4970466;28;20193;-62
2021/05/15 00:59:32;;;;;;;0.00;0.00;;;;;;;;;;4974166;28;20205;-62
2021/05/15 01:01:59;;;;;;;0.23;0.20;;;;;;;;;;4976601;28;20198;-62
2021/05/15 01:04:26;;;;;;;0.00;0.00;;;;;;;;;;4977851;28;20193;-62
2021/05/15 01:06:53;;;;;;;0.47;0.47;;;;;;;;;;4975708;28;20267;-62
2021/05/15 01:09:20;;;;;;;2.20;0.53;;;;;;;;;;4980710;28;20182;-62
2021/05/15 01:11:46;;;;;;;0.40;0.40;;;;;;;;;;4975743;28;20181;-62
2021/05/15 01:14:13;;;;;;;2.37;0.63;;;;;;;;;;4977391;28;20197;-61
2021/05/15 01:16:40;;;;;;;0.23;0.23;;;;;;;;;;4975703;28;20186;-62
2021/05/15 01:19:07;;;;;;;0.40;0.40;;;;;;;;;;4975387;28;20553;-61
2021/05/15 01:21:34;;;;;;;0.00;0.00;;;;;;;;;;4976530;28;21094;-61
2021/05/15 01:24:02;;;;;;;0.00;0.00;;;;;;;;;;4975013;28;20200;-62
2021/05/15 01:26:32;;;;;;;0.00;0.00;;;;;;;;;;4978395;28;20205;-61
2021/05/15 01:29:00;;;;;;;0.57;0.20;;;;;;;;;;4978143;28;20296;-62
2021/05/15 01:31:27;;;;;;;0.00;0.00;;;;;;;;;;4979729;28;20192;-62
2021/05/15 01:33:54;;;;;;;0.10;0.10;;;;;;;;;;4981528;28;20745;-62
2021/05/15 01:36:21;;;;;;;0.00;0.00;;;;;;;;;;4968781;28;20187;-62
2021/05/15 01:38:48;;;;;;;3.40;0.37;;;;;;;;;;4977408;28;20881;-62
2021/05/15 01:41:16;;;;;;;1.40;0.40;;;;;;;;;;4977201;28;20194;-62
2021/05/15 01:43:44;;;;;;;0.00;0.00;;;;;;;;;;4975129;28;20535;-62
2021/05/15 01:46:11;;;;;;;0.00;0.00;;;;;;;;;;4976905;28;20232;-61
2021/05/15 01:48:38;;;;;;;0.00;0.00;;;;;;;;;;4978095;28;20192;-61
2021/05/15 01:51:14;;;;;;;0.00;0.00;;;;;;;;;;4976849;28;20182;-62
2021/05/15 01:53:46;;;;;;;0.00;0.00;;;;;;;;;;4975437;28;20181;-62
2021/05/15 01:56:13;;;;;;;0.00;0.00;;;;;;;;;;4969967;28;20190;-62
2021/05/15 01:58:40;;;;;;;0.57;0.33;;;;;;;;;;4970654;28;20273;-62
2021/05/15 02:01:07;;;;;;;0.00;0.00;;;;;;;;;;4971764;28;20248;-61
2021/05/15 02:03:35;;;;;;;0.43;0.43;;;;;;;;;;4979494;28;20352;-61
2021/05/15 02:06:01;;;;;;;0.00;0.00;;;;;;;;;;4977313;28;20209;-61
2021/05/15 02:08:28;;;;;;;0.00;0.00;;;;;;;;;;4973188;28;20757;-62
2021/05/15 02:10:56;;;;;;;3.30;3.20;;;;;;;;;;4973812;28;20345;-61
2021/05/15 02:13:25;;;;;;;0.00;0.00;;;;;;;;;;4974709;28;20196;-61
2021/05/15 02:15:52;;;;;;;0.23;0.23;;;;;;;;;;4977737;28;20717;-61
2021/05/15 02:18:19;;;;;;;0.10;0.10;;;;;;;;;;4978155;28;20191;-61
2021/05/15 02:20:52;;;;;;;0.07;0.07;;;;;;;;;;4976666;28;20193;-62
2021/05/15 02:23:19;;;;;;;0.10;0.10;;;;;;;;;;4973567;28;21495;-61
2021/05/15 02:25:46;;;;;;;0.00;0.00;;;;;;;;;;4978592;28;20214;-62
2021/05/15 02:28:13;;;;;;;6.53;0.33;;;;;;;;;;4981183;28;20276;-62
2021/05/15 02:30:40;;;;;;;0.93;0.23;;;;;;;;;;4978858;28;20282;-62
2021/05/15 02:33:07;;;;;;;0.00;0.00;;;;;;;;;;4975087;28;20261;-62
2021/05/15 02:35:33;;;;;;;0.00;0.00;;;;;;;;;;4979097;28;20279;-62
2021/05/15 02:38:00;;;;;;;0.00;0.00;;;;;;;;;;4980584;28;21012;-62
2021/05/15 02:40:27;;;;;;;0.00;0.00;;;;;;;;;;4979471;28;20193;-62
2021/05/15 02:42:56;;;;;;;0.23;0.23;;;;;;;;;;4970643;28;21066;-62
2021/05/15 02:45:24;;;;;;;0.30;0.10;;;;;;;;;;4973436;28;20197;-62
2021/05/15 02:47:53;;;;;;;0.60;0.23;;;;;;;;;;4977914;28;20941;-61
2021/05/15 02:50:20;;;;;;;0.03;0.03;;;;;;;;;;4967987;28;20264;-62
2021/05/15 02:52:46;;;;;;;0.00;0.00;;;;;;;;;;4971731;28;20603;-61
2021/05/15 02:55:15;;;;;;;0.00;0.00;;;;;;;;;;4975838;28;20543;-61
2021/05/15 02:57:43;;;;;;;0.00;0.00;;;;;;;;;;4967865;28;20511;-61
2021/05/15 03:00:12;;;;;;;0.40;0.40;;;;;;;;;;4977583;28;20185;-62
2021/05/15 03:02:38;;;;;;;0.10;0.10;;;;;;;;;;4975854;28;20413;-61
2021/05/15 03:05:06;;;;;;;0.57;0.57;;;;;;;;;;4974772;28;20186;-62
2021/05/15 03:07:33;;;;;;;0.50;0.30;;;;;;;;;;4975889;28;20179;-62
2021/05/15 03:10:00;;;;;;;10.67;0.70;;;;;;;;;;4975813;28;20218;-61
2021/05/15 03:12:27;;;;;;;0.10;0.10;;;;;;;;;;4976985;28;20647;-62
2021/05/15 03:14:53;;;;;;;2.23;0.77;;;;;;;;;;4977574;28;20182;-62
2021/05/15 03:17:20;;;;;;;0.53;0.23;;;;;;;;;;4977272;28;20201;-63
2021/05/15 03:19:48;;;;;;;1.30;0.20;;;;;;;;;;4976840;28;20193;-62
2021/05/15 03:22:14;;;;;;;0.10;0.10;;;;;;;;;;4979653;28;20193;-62
2021/05/15 03:24:41;;;;;;;0.00;0.00;;;;;;;;;;4972230;28;20285;-62
2021/05/15 03:27:08;;;;;;;0.00;0.00;;;;;;;;;;4976398;28;20206;-62
2021/05/15 03:29:34;;;;;;;0.00;0.00;;;;;;;;;;4977996;28;20185;-62
2021/05/15 03:32:01;;;;;;;0.27;0.27;;;;;;;;;;4976035;28;20237;-62
2021/05/15 03:34:28;;;;;;;0.30;0.30;;;;;;;;;;4974962;28;20631;-62
2021/05/15 03:36:54;;;;;;;0.17;0.17;;;;;;;;;;4976314;28;20213;-62
2021/05/15 03:39:21;;;;;;;6.03;1.00;;;;;;;;;;4974339;28;20182;-62
2021/05/15 03:41:48;;;;;;;0.00;0.00;;;;;;;;;;4979292;28;20182;-62
2021/05/15 03:44:14;;;;;;;0.00;0.00;;;;;;;;;;4978713;28;20925;-62
2021/05/15 03:46:41;;;;;;;0.63;0.50;;;;;;;;;;4978794;28;20521;-61
2021/05/15 03:49:08;;;;;;;6.23;3.83;;;;;;;;;;4977732;28;20244;-62
2021/05/15 03:51:36;;;;;;;0.00;0.00;;;;;;;;;;4974697;28;20197;-62
2021/05/15 03:54:03;;;;;;;0.10;0.10;;;;;;;;;;4975482;28;20189;-62
2021/05/15 03:56:30;;;;;;;0.00;0.00;;;;;;;;;;4977850;28;20219;-61
2021/05/15 03:58:56;;;;;;;0.00;0.00;;;;;;;;;;4977144;28;20205;-62
2021/05/15 04:01:23;;;;;;;0.17;0.17;;;;;;;;;;4974938;28;20186;-62
2021/05/15 04:03:49;;;;;;;0.00;0.00;;;;;;;;;;4972748;28;20204;-62
2021/05/15 04:06:16;;;;;;;0.00;0.00;;;;;;;;;;4975961;28;20213;-62
2021/05/15 04:08:43;;;;;;;7.60;2.27;;;;;;;;;;4970103;28;20281;-61
2021/05/15 04:11:10;;;;;;;0.00;0.00;;;;;;;;;;4971532;28;21082;-62
2021/05/15 04:13:56;;;;;;;0.10;0.10;;;;;;;;;;4972488;28;20193;-62
2021/05/15 04:18:49;;;;;;;0.20;0.20;;;;;;;;;;4973651;28;20307;-61
2021/05/15 04:21:15;;;;;;;0.63;0.63;;;;;;;;;;4971660;28;20194;-62
2021/05/15 04:23:42;;;;;;;0.00;0.00;;;;;;;;;;4971789;28;20186;-63
2021/05/15 04:26:11;;;;;;;0.30;0.30;;;;;;;;;;4973184;28;20364;-62
2021/05/15 04:28:37;;;;;;;0.00;0.00;;;;;;;;;;4979371;28;20190;-63
2021/05/15 04:31:04;;;;;;;0.33;0.33;;;;;;;;;;4976818;28;20182;-62
2021/05/15 04:33:31;;;;;;;0.87;0.50;;;;;;;;;;4972534;28;20644;-62
2021/05/15 04:35:57;;;;;;;1.50;1.40;;;;;;;;;;4973830;28;20185;-63
2021/05/15 04:38:25;;;;;;;0.00;0.00;;;;;;;;;;4977183;28;20201;-63
2021/05/15 04:40:51;;;;;;;0.00;0.00;;;;;;;;;;4974638;28;20282;-63
2021/05/15 04:43:18;;;;;;;0.13;0.13;;;;;;;;;;4978739;28;20249;-62
2021/05/15 04:45:45;;;;;;;2.13;0.73;;;;;;;;;;4976401;28;20337;-62
2021/05/15 04:48:12;;;;;;;3.00;0.93;;;;;;;;;;4975585;28;20192;-62
2021/05/15 04:50:39;;;;;;;0.00;0.00;;;;;;;;;;4977732;28;20259;-62
2021/05/15 04:53:06;;;;;;;0.77;0.50;;;;;;;;;;4978984;28;20190;-61
2021/05/15 04:55:32;;;;;;;0.00;0.00;;;;;;;;;;4973735;28;20186;-61
2021/05/15 04:58:00;;;;;;;0.00;0.00;;;;;;;;;;4974837;28;20741;-61
2021/05/15 05:00:28;;;;;;;3.80;0.90;;;;;;;;;;4976192;28;20181;-62
2021/05/15 05:02:54;;;;;;;0.57;0.57;;;;;;;;;;4977072;28;21050;-62
2021/05/15 05:05:21;;;;;;;0.00;0.00;;;;;;;;;;4980081;28;20213;-62
2021/05/15 05:07:50;;;;;;;0.10;0.10;;;;;;;;;;4975862;28;20938;-62
2021/05/15 05:10:17;;;;;;;1.17;0.93;;;;;;;;;;4972436;28;20191;-61
2021/05/15 05:12:44;;;;;;;0.30;0.20;;;;;;;;;;4972934;28;20192;-62
2021/05/15 05:15:10;;;;;;;1.17;0.57;;;;;;;;;;4971064;28;20847;-62
2021/05/15 05:17:37;;;;;;;1.37;1.33;;;;;;;;;;4970275;28;20186;-62
2021/05/15 05:20:04;;;;;;;0.20;0.20;;;;;;;;;;4973168;28;20555;-62
2021/05/15 05:22:31;;;;;;;0.63;0.63;;;;;;;;;;4973051;28;20190;-62
2021/05/15 05:24:57;;;;;;;0.00;0.00;;;;;;;;;;4978686;28;20224;-62
2021/05/15 05:27:24;;;;;;;0.00;0.00;;;;;;;;;;4974925;28;20208;-62
2021/05/15 05:29:50;;;;;;;0.00;0.00;;;;;;;;;;4975304;28;20624;-62
2021/05/15 05:32:17;;;;;;;0.00;0.00;;;;;;;;;;4976300;28;20235;-62
2021/05/15 05:34:44;;;;;;;0.00;0.00;;;;;;;;;;4977506;28;20191;-62
2021/05/15 05:37:10;;;;;;;3.00;1.83;;;;;;;;;;4973778;28;20189;-62
2021/05/15 05:39:37;;;;;;;0.00;0.00;;;;;;;;;;4972959;28;20200;-62
2021/05/15 05:42:04;;;;;;;0.00;0.00;;;;;;;;;;4974196;28;20986;-61
2021/05/15 05:44:31;;;;;;;0.00;0.00;;;;;;;;;;4973363;28;20659;-62
2021/05/15 05:46:57;;;;;;;0.00;0.00;;;;;;;;;;4976257;28;20311;-62
2021/05/15 05:49:24;;;;;;;2.53;0.57;;;;;;;;;;4983514;28;20182;-62
2021/05/15 05:51:51;;;;;;;0.33;0.33;;;;;;;;;;4978640;28;20189;-62
2021/05/15 05:54:17;;;;;;;0.00;0.00;;;;;;;;;;4977421;28;20584;-62
2021/05/15 05:56:44;;;;;;;0.00;0.00;;;;;;;;;;4977831;28;21022;-62
2021/05/15 05:59:11;;;;;;;0.00;0.00;;;;;;;;;;4979975;28;20276;-62
2021/05/15 06:01:38;;;;;;;3.53;3.30;;;;;;;;;;4979131;28;20197;-62
2021/05/15 06:04:05;;;;;;;0.00;0.00;;;;;;;;;;4977094;28;20193;-62
2021/05/15 06:06:31;;;;;;;1.37;1.37;;;;;;;;;;4976278;28;20206;-61
2021/05/15 06:08:58;;;;;;;0.47;0.33;;;;;;;;;;4973967;28;20207;-62
2021/05/15 06:11:25;;;;;;;0.93;0.37;;;;;;;;;;4971803;28;20780;-62
2021/05/15 06:13:52;;;;;;;0.00;0.00;;;;;;;;;;4975746;28;20197;-61
2021/05/15 06:16:18;;;;;;;0.97;0.97;;;;;;;;;;4975602;28;21263;-62
2021/05/15 06:18:45;;;;;;;0.00;0.00;;;;;;;;;;4976294;28;20388;-61
2021/05/15 06:21:11;;;;;;;0.00;0.00;;;;;;;;;;4975805;28;20190;-62
2021/05/15 06:23:38;;;;;;;5.73;0.83;;;;;;;;;;4977522;28;20200;-62
2021/05/15 06:26:09;;;;;;;1.30;0.10;;;;;;;;;;4977930;28;20213;-62
2021/05/15 06:28:36;;;;;;;0.00;0.00;;;;;;;;;;4982627;28;20204;-61
2021/05/15 06:31:04;;;;;;;0.30;0.30;;;;;;;;;;4979741;28;20188;-62
2021/05/15 06:33:30;;;;;;;0.03;0.03;;;;;;;;;;4973813;28;20234;-62
2021/05/15 06:35:57;;;;;;;0.00;0.00;;;;;;;;;;4976266;28;20195;-62
2021/05/15 06:38:24;;;;;;;0.00;0.00;;;;;;;;;;4975410;28;20218;-61
2021/05/15 06:40:50;;;;;;;0.00;0.00;;;;;;;;;;4980094;28;20182;-62
2021/05/15 06:43:17;;;;;;;0.73;0.73;;;;;;;;;;4979871;28;20193;-62
2021/05/15 06:45:44;;;;;;;0.87;0.87;;;;;;;;;;4981460;28;20288;-62
2021/05/15 06:48:11;;;;;;;0.00;0.00;;;;;;;;;;4981727;28;20188;-63
2021/05/15 06:50:37;;;;;;;0.90;0.90;;;;;;;;;;4977922;28;20196;-62
2021/05/15 06:53:04;;;;;;;0.00;0.00;;;;;;;;;;4981002;28;20193;-62
2021/05/15 06:55:31;;;;;;;0.00;0.00;;;;;;;;;;4981276;28;20288;-62
2021/05/15 06:57:57;;;;;;;0.00;0.00;;;;;;;;;;4982036;28;20814;-62
2021/05/15 07:00:24;;;;;;;0.00;0.00;;;;;;;;;;4977882;28;20224;-62
2021/05/15 07:02:50;;;;;;;0.20;0.20;;;;;;;;;;4976103;28;20189;-62
2021/05/15 07:05:18;;;;;;;0.00;0.00;;;;;;;;;;4977778;28;20199;-62
2021/05/15 07:07:45;;;;;;;0.20;0.20;;;;;;;;;;4979150;28;20236;-62
2021/05/15 07:10:12;;;;;;;0.00;0.00;;;;;;;;;;4977673;28;20559;-62
2021/05/15 07:12:38;;;;;;;0.00;0.00;;;;;;;;;;4974227;28;20196;-62
2021/05/15 07:15:08;;;;;;;0.27;0.27;;;;;;;;;;4974260;28;20193;-62
2021/05/15 07:17:35;;;;;;;0.00;0.00;;;;;;;;;;4974878;28;20190;-61
2021/05/15 07:20:03;;;;;;;0.20;0.20;;;;;;;;;;4976776;28;20193;-62
2021/05/15 07:22:30;;;;;;;0.00;0.00;;;;;;;;;;4974261;28;20970;-61
2021/05/15 07:25:00;;;;;;;0.00;0.00;;;;;;;;;;4972373;28;20193;-62
2021/05/15 07:27:28;;;;;;;0.00;0.00;;;;;;;;;;4973115;28;20219;-62
2021/05/15 07:29:55;;;;;;;0.13;0.13;;;;;;;;;;4974099;28;20945;-61
2021/05/15 07:32:22;;;;;;;1.07;1.07;;;;;;;;;;4973810;28;20228;-62
2021/05/15 07:34:49;;;;;;;0.00;0.00;;;;;;;;;;4972907;28;20195;-62
2021/05/15 07:37:15;;;;;;;0.00;0.00;;;;;;;;;;4974613;28;20273;-62
2021/05/15 07:39:43;;;;;;;9.47;1.90;;;;;;;;;;4975306;28;20280;-62
2021/05/15 07:42:10;;;;;;;0.10;0.10;;;;;;;;;;4976620;28;20189;-62
2021/05/15 07:44:36;;;;;;;0.00;0.00;;;;;;;;;;4976299;28;20610;-62
2021/05/15 07:47:04;;;;;;;0.63;0.63;;;;;;;;;;4976555;28;20217;-63
2021/05/15 07:49:31;;;;;;;0.00;0.00;;;;;;;;;;4973986;28;20886;-62
2021/05/15 07:51:58;;;;;;;0.00;0.00;;;;;;;;;;4977686;28;20189;-62
2021/05/15 07:54:25;;;;;;;0.43;0.43;;;;;;;;;;4975075;28;20280;-63
2021/05/15 07:56:54;;;;;;;0.27;0.17;;;;;;;;;;4974747;28;20785;-63
2021/05/15 07:59:20;;;;;;;3.90;3.03;;;;;;;;;;4978173;28;20201;-62
2021/05/15 08:01:47;;;;;;;0.30;0.30;;;;;;;;;;4980602;28;20205;-63
2021/05/15 08:04:13;;;;;;;0.23;0.23;;;;;;;;;;4977639;28;20281;-63
2021/05/15 08:06:40;;;;;;;0.43;0.40;;;;;;;;;;4980825;28;20348;-63
2021/05/15 08:09:07;;;;;;;1.23;1.20;;;;;;;;;;4982049;28;20196;-63
2021/05/15 08:11:35;;;;;;;10.80;3.33;;;;;;;;;;4975398;28;20201;-63
2021/05/15 08:14:04;;;;;;;0.00;0.00;;;;;;;;;;4978645;28;20186;-63
2021/05/15 08:16:31;;;;;;;0.00;0.00;;;;;;;;;;4980969;28;20216;-62
2021/05/15 08:18:58;;;;;;;0.00;0.00;;;;;;;;;;4980279;28;20193;-63
2021/05/15 08:21:24;;;;;;;4.63;1.70;;;;;;;;;;4976120;28;20901;-63
2021/05/15 08:23:51;;;;;;;0.00;0.00;;;;;;;;;;4978285;28;20192;-62
2021/05/15 08:26:17;;;;;;;2.67;1.27;;;;;;;;;;4977988;28;20216;-63
2021/05/15 08:28:48;;;;;;;4.30;1.27;;;;;;;;;;4979548;28;20212;-63
2021/05/15 08:31:15;;;;;;;0.03;0.03;;;;;;;;;;4974851;28;20236;-62
2021/05/15 08:33:42;;;;;;;1.17;1.07;;;;;;;;;;4977103;28;20244;-62
2021/05/15 08:36:10;;;;;;;1.57;1.33;;;;;;;;;;4969994;28;20280;-62
2021/05/15 08:38:41;;;;;;;1.30;0.27;;;;;;;;;;4969533;28;20246;-62
2021/05/15 08:41:08;;;;;;;0.40;0.40;;;;;;;;;;4972873;28;20181;-63
2021/05/15 08:43:35;;;;;;;0.10;0.10;;;;;;;;;;4975736;28;20204;-62
2021/05/15 08:46:03;;;;;;;1.50;1.40;;;;;;;;;;4970630;28;20248;-63
2021/05/15 08:48:31;;;;;;;0.23;0.23;;;;;;;;;;4973821;28;20768;-62
2021/05/15 08:50:58;;;;;;;0.00;0.00;;;;;;;;;;4975485;28;20180;-62
2021/05/15 08:53:25;;;;;;;7.63;1.20;;;;;;;;;;4975489;28;20212;-62
2021/05/15 08:55:52;;;;;;;0.17;0.17;;;;;;;;;;4980338;28;20246;-62
2021/05/15 08:58:20;;;;;;;2.10;1.13;;;;;;;;;;4978761;28;20196;-63
2021/05/15 09:00:47;;;;;;;0.00;0.00;;;;;;;;;;4977576;28;20529;-62
2021/05/15 09:03:15;;;;;;;1.43;1.33;;;;;;;;;;4972297;28;20351;-62
2021/05/15 09:05:44;;;;;;;24.17;1.40;;;;;;;;;;4973607;28;20237;-62
2021/05/15 09:08:11;;;;;;;0.93;0.60;;;;;;;;;;4976832;28;20184;-62
2021/05/15 09:10:39;;;;;;;0.27;0.27;;;;;;;;;;4976967;28;20268;-62
2021/05/15 09:13:10;;;;;;;0.10;0.10;;;;;;;;;;4979243;28;20225;-62
2021/05/15 09:15:59;;;;;;;0.50;0.50;;;;;;;;;;4980227;28;20287;-62
2021/05/15 09:18:27;;;;;;;0.00;0.00;;;;;;;;;;4986600;28;20729;-63
2021/05/15 09:20:54;;;;;;;0.23;0.23;;;;;;;;;;4975216;28;20197;-62
2021/05/15 09:23:31;;;;;;;0.00;0.00;;;;;;;;;;4976704;28;20557;-62
2021/05/15 09:26:06;;;;;;;0.00;0.00;;;;;;;;;;4983719;28;20577;-62
2021/05/15 09:28:47;;;;;;;0.00;0.00;;;;;;;;;;4981057;28;20193;-62
2021/05/15 09:31:16;;;;;;;0.00;0.00;;;;;;;;;;4983401;28;20537;-63
2021/05/15 09:33:43;;;;;;;0.10;0.10;;;;;;;;;;4981974;28;20235;-62
2021/05/15 09:36:13;;;;;;;0.50;0.47;;;;;;;;;;4979383;28;20226;-62
2021/05/15 09:38:39;;;;;;;0.00;0.00;;;;;;;;;;4982197;28;20193;-62
2021/05/15 09:41:06;;;;;;;0.00;0.00;;;;;;;;;;4984698;28;20336;-62
2021/05/15 09:43:32;;;;;;;1.03;0.93;;;;;;;;;;4982310;28;20196;-62
2021/05/15 09:45:59;;;;;;;0.00;0.00;;;;;;;;;;4982043;28;20219;-62
2021/05/15 09:48:35;;;;;;;0.10;0.10;;;;;;;;;;4984461;28;20182;-62
2021/05/15 09:51:22;;;;;;;11.03;1.30;;;;;;;;;;4983899;28;20294;-62
2021/05/15 09:53:48;;;;;;;2.10;2.00;;;;;;;;;;4983556;28;20217;-63
2021/05/15 09:56:36;;;;;;;0.40;0.10;;;;;;;;;;4983885;28;20562;-62
2021/05/15 09:59:03;;;;;;;0.00;0.00;;;;;;;;;;4984176;28;20663;-62
2021/05/15 10:01:39;;;;;;;0.97;0.40;;;;;;;;;;4984669;28;20197;-62
2021/05/15 10:04:06;;;;;;;0.23;0.23;;;;;;;;;;4986099;28;20831;-62
2021/05/15 10:06:32;;;;;;;3.50;0.37;;;;;;;;;;4985096;28;20248;-62
2021/05/15 10:08:59;;;;;;;0.70;0.70;;;;;;;;;;4985628;28;20185;-62
2021/05/15 10:11:25;;;;;;;0.73;0.57;;;;;;;;;;4974610;28;20538;-62
2021/05/15 10:13:52;;;;;;;0.00;0.00;;;;;;;;;;4985457;28;20243;-62
2021/05/15 10:16:19;;;;;;;1.87;1.70;;;;;;;;;;4985100;28;20192;-62
2021/05/15 10:18:46;;;;;;;0.00;0.00;;;;;;;;;;4984967;28;20190;-62
2021/05/15 10:21:13;;;;;;;0.00;0.00;;;;;;;;;;4985209;28;20193;-62
2021/05/15 10:23:40;;;;;;;0.00;0.00;;;;;;;;;;4984912;28;20204;-63
2021/05/15 10:26:16;;;;;;;1.30;1.30;;;;;;;;;;4984247;28;20817;-63
2021/05/15 10:28:45;;;;;;;0.17;0.17;;;;;;;;;;4984112;28;20305;-63
2021/05/15 10:31:11;;;;;;;0.53;0.50;;;;;;;;;;4984788;28;20196;-62
2021/05/15 10:33:38;;;;;;;0.00;0.00;;;;;;;;;;4983136;28;20229;-62
2021/05/15 10:36:06;;;;;;;0.00;0.00;;;;;;;;;;4985280;28;20645;-62
2021/05/15 10:38:37;;;;;;;0.00;0.00;;;;;;;;;;4979058;28;20205;-62
2021/05/15 10:41:11;;;;;;;0.10;0.10;;;;;;;;;;4985161;28;20182;-62
2021/05/15 10:43:38;;;;;;;0.00;0.00;;;;;;;;;;4979413;28;20231;-62
2021/05/15 10:46:17;;;;;;;4.17;2.10;;;;;;;;;;4982849;28;20248;-62
2021/05/15 10:48:54;;;;;;;3.30;1.00;;;;;;;;;;4985091;28;20189;-62
2021/05/15 10:51:31;;;;;;;0.10;0.10;;;;;;;;;;4981290;28;20188;-63
2021/05/15 10:53:58;;;;;;;11.60;1.70;;;;;;;;;;4983776;28;20263;-62
2021/05/15 10:56:30;;;;;;;0.00;0.00;;;;;;;;;;4980595;28;20539;-62
2021/05/15 10:59:04;;;;;;;0.00;0.00;;;;;;;;;;4980763;28;20200;-63
2021/05/15 11:01:42;;;;;;;9.03;0.87;;;;;;;;;;4984438;28;20295;-63
2021/05/15 11:04:19;;;;;;;0.00;0.00;;;;;;;;;;4983834;28;20199;-63
2021/05/15 11:07:06;;;;;;;0.30;0.00;;;;;;;;;;4983168;28;20250;-63
2021/05/15 11:09:51;;;;;;;0.43;0.43;;;;;;;;;;4978155;28;20190;-63
2021/05/15 11:12:19;;;;;;;0.00;0.00;;;;;;;;;;4984950;28;20220;-62
2021/05/15 11:14:48;;;;;;;0.83;0.20;;;;;;;;;;4978515;28;20189;-63
2021/05/15 11:17:18;;;;;;;5.50;0.83;;;;;;;;;;4983876;28;20237;-63
2021/05/15 13:09:12;;;;;;;0.27;0.27;;;;;;;;;;5075589;27;20580;-64
2021/05/15 13:11:39;;;;;;;4.80;0.93;;;;;;;;;;5079257;28;20182;-64
2021/05/15 13:14:05;;;;;;;2.27;0.67;;;;;;;;;;5078953;28;20287;-63
2021/05/15 13:16:33;;;;;;;0.60;0.60;;;;;;;;;;5079709;28;20527;-64
2021/05/15 13:19:01;;;;;;;0.67;0.13;;;;;;;;;;5079613;28;20757;-64
2021/05/15 13:21:27;;;;;;;1.30;0.53;;;;;;;;;;5079161;28;20200;-64
2021/05/15 13:23:54;;;;;;;0.63;0.33;;;;;;;;;;5078916;28;20183;-63
2021/05/15 13:26:21;;;;;;;1.77;0.60;;;;;;;;;;5079049;28;20191;-64
2021/05/15 13:28:47;;;;;;;5.83;0.87;;;;;;;;;;5078974;28;20202;-64
2021/05/15 13:31:14;;;;;;;0.20;0.20;;;;;;;;;;5078884;28;20190;-64
2021/05/15 13:33:40;;;;;;;1.43;0.77;;;;;;;;;;5079021;28;20532;-63
2021/05/15 13:36:07;;;;;;;0.10;0.10;;;;;;;;;;5079206;28;20177;-64
2021/05/15 13:38:33;;;;;;;1.97;0.90;;;;;;;;;;5077986;28;20202;-64
2021/05/15 13:41:00;;;;;;;1.30;0.67;;;;;;;;;;5072531;28;20185;-64
2021/05/15 13:43:26;;;;;;;4.00;3.70;;;;;;;;;;5078326;28;20189;-64
2021/05/15 13:45:53;;;;;;;0.00;0.00;;;;;;;;;;5072547;28;20180;-65
2021/05/15 13:48:32;;;;;;;1.13;1.03;;;;;;;;;;5072316;28;20204;-64
2021/05/15 13:51:13;;;;;;;6.03;0.20;;;;;;;;;;5078598;28;20268;-64
2021/05/15 13:53:40;;;;;;;0.00;0.00;;;;;;;;;;5078397;28;20183;-65
2021/05/15 13:56:07;;;;;;;2.30;1.03;;;;;;;;;;5078532;28;20178;-64
2021/05/15 13:58:34;;;;;;;1.90;1.30;;;;;;;;;;5078018;28;20209;-65
2021/05/15 14:01:01;;;;;;;6.07;1.10;;;;;;;;;;5075010;28;20277;-64
2021/05/15 14:03:27;;;;;;;1.30;0.20;;;;;;;;;;5077869;28;20185;-64
2021/05/15 14:05:54;;;;;;;2.47;0.53;;;;;;;;;;5078123;28;20190;-64
2021/05/15 14:08:21;;;;;;;0.00;0.00;;;;;;;;;;5071107;28;20326;-64
2021/05/15 14:10:48;;;;;;;2.83;2.63;;;;;;;;;;5078197;28;20268;-64
2021/05/15 14:13:15;;;;;;;1.60;0.47;;;;;;;;;;5078136;28;20518;-64
2021/05/15 14:15:41;;;;;;;2.80;0.50;;;;;;;;;;5078034;28;20220;-65
2021/05/15 14:18:08;;;;;;;2.57;0.60;;;;;;;;;;5077916;28;20185;-64
2021/05/15 14:20:35;;;;;;;0.10;0.10;;;;;;;;;;5064615;28;20712;-65
2021/05/15 14:23:02;;;;;;;0.20;0.17;;;;;;;;;;5059578;28;20280;-67
2021/05/15 14:25:29;;;;;;;7.80;0.93;;;;;;;;;;5056363;28;20188;-65
2021/05/15 14:27:56;;;;;;;0.33;0.30;;;;;;;;;;5051175;28;20968;-64
2021/05/15 14:30:23;;;;;;;1.60;0.60;;;;;;;;;;5047015;28;20230;-71
2021/05/15 14:32:50;;;;;;;1.90;0.63;;;;;;;;;;5054013;28;20183;-70
2021/05/15 14:35:17;;;;;;;0.50;0.37;;;;;;;;;;5050850;28;20183;-69
2021/05/15 14:37:47;;;;;;;0.37;0.37;;;;;;;;;;5061907;28;20487;-65
2021/05/15 14:40:17;;;;;;;0.27;0.10;;;;;;;;;;5050025;28;20255;-69
2021/05/15 14:42:43;;;;;;;0.00;0.00;;;;;;;;;;5051417;28;20518;-69
2021/05/15 14:45:10;;;;;;;5.40;1.57;;;;;;;;;;5056159;28;20263;-71
2021/05/15 14:47:37;;;;;;;0.33;0.10;;;;;;;;;;5062197;28;20257;-68
2021/05/15 14:50:04;;;;;;;0.27;0.27;;;;;;;;;;5057726;28;20655;-70
2021/05/15 14:52:30;;;;;;;9.83;0.90;;;;;;;;;;5057439;28;20281;-71
2021/05/15 14:54:57;;;;;;;2.73;2.53;;;;;;;;;;5058871;28;20206;-71
2021/05/15 14:57:24;;;;;;;0.37;0.33;;;;;;;;;;5059921;28;20184;-71
2021/05/15 14:59:51;;;;;;;0.70;0.70;;;;;;;;;;5064803;28;20191;-68
2021/05/15 15:02:17;;;;;;;3.20;1.90;;;;;;;;;;5064721;28;20248;-71
2021/05/15 15:04:44;;;;;;;1.00;0.97;;;;;;;;;;5058985;28;20180;-70
2021/05/15 15:07:10;;;;;;;0.53;0.53;;;;;;;;;;5054572;28;20215;-71
2021/05/15 15:09:37;;;;;;;0.60;0.43;;;;;;;;;;5056872;28;20205;-71
2021/05/15 15:12:04;;;;;;;0.20;0.10;;;;;;;;;;5059943;28;20872;-72
2021/05/15 15:14:33;;;;;;;1.30;0.50;;;;;;;;;;5055430;28;20209;-71
2021/05/15 15:16:59;;;;;;;0.47;0.23;;;;;;;;;;5056993;28;20182;-71
2021/05/15 15:19:27;;;;;;;0.83;0.40;;;;;;;;;;5059009;28;20672;-71
2021/05/15 15:21:54;;;;;;;4.60;1.70;;;;;;;;;;5059422;28;20185;-72
2021/05/15 15:24:21;;;;;;;0.30;0.30;;;;;;;;;;5060014;28;20181;-65
2021/05/15 15:26:48;;;;;;;1.07;0.77;;;;;;;;;;5057144;28;20255;-70
2021/05/15 15:29:14;;;;;;;2.33;1.20;;;;;;;;;;5042057;28;20229;-67
2021/05/15 15:31:42;;;;;;;4.83;2.43;;;;;;;;;;5056601;28;20186;-67
2021/05/15 15:34:08;;;;;;;2.20;1.73;;;;;;;;;;5058575;28;20214;-68
2021/05/15 15:36:35;;;;;;;1.07;1.00;;;;;;;;;;5059328;28;20212;-68
2021/05/15 15:39:05;;;;;;;0.60;0.60;;;;;;;;;;5057100;28;20204;-67
2021/05/15 15:41:31;;;;;;;1.70;0.30;;;;;;;;;;5056353;28;20625;-70
2021/05/15 15:43:59;;;;;;;8.13;4.27;;;;;;;;;;5055664;28;20333;-69
2021/05/15 15:46:26;;;;;;;3.60;1.53;;;;;;;;;;5057355;28;20196;-68
2021/05/15 15:48:53;;;;;;;4.20;1.10;;;;;;;;;;5056100;28;20542;-67
2021/05/15 15:51:19;;;;;;;0.87;0.63;;;;;;;;;;5051968;28;20183;-68
2021/05/15 15:53:46;;;;;;;8.00;1.73;;;;;;;;;;5054757;28;20238;-68
2021/05/15 15:56:12;;;;;;;22.77;11.20;;;;;;;;;;5055583;28;20210;-69
2021/05/15 15:58:39;;;;;;;0.77;0.70;;;;;;;;;;5055704;28;20517;-67
2021/05/15 16:01:06;;;;;;;2.27;1.73;;;;;;;;;;5055096;28;20228;-67
2021/05/15 16:03:37;;;;;;;1.67;1.40;;;;;;;;;;5055269;28;20189;-68
2021/05/15 16:06:05;;;;;;;1.93;1.07;;;;;;;;;;5052614;28;20604;-67
2021/05/15 16:08:33;;;;;;;1.27;1.03;;;;;;;;;;5048904;28;20236;-69
2021/05/15 16:11:00;;;;;;;6.53;1.57;;;;;;;;;;5050658;28;20495;-68
2021/05/15 16:13:27;;;;;;;1.40;0.87;;;;;;;;;;5045390;28;20205;-69
2021/05/15 16:15:53;;;;;;;0.10;0.10;;;;;;;;;;5059036;28;20170;-69
2021/05/15 16:18:20;;;;;;;0.50;0.50;;;;;;;;;;5050707;28;20228;-68
2021/05/15 16:20:46;;;;;;;16.07;0.93;;;;;;;;;;5046824;28;20192;-68
2021/05/15 16:23:13;;;;;;;1.13;0.40;;;;;;;;;;5047325;28;20548;-68
2021/05/15 16:25:41;;;;;;;0.00;0.00;;;;;;;;;;5056850;28;20186;-69
2021/05/15 16:28:08;;;;;;;9.90;1.13;;;;;;;;;;5056190;28;20586;-68
2021/05/15 16:30:35;;;;;;;28.83;3.03;;;;;;;;;;5060278;28;20224;-69
2021/05/15 16:33:03;;;;;;;0.87;0.40;;;;;;;;;;5043960;28;20271;-67
2021/05/15 16:35:30;;;;;;;1.43;0.30;;;;;;;;;;5033781;28;20172;-68
2021/05/15 16:37:57;;;;;;;2.00;1.20;;;;;;;;;;5036149;28;20201;-67